createdAt,value
2018-10-07T00:01:51.391Z,16.93
2018-10-07T00:04:21.920Z,16.10
2018-10-07T00:06:52.674Z,16.80
2018-10-07T00:09:23.598Z,17.37
2018-10-07T00:11:54.429Z,17.45
2018-10-07T00:14:25.662Z,17.82
2018-10-07T00:16:56.491Z,17.00
2018-10-07T00:19:27.919Z,18.38
2018-10-07T00:21:58.637Z,18.05
2018-10-07T00:24:30.480Z,18.95
2018-10-07T00:27:00.318Z,21.90
2018-10-07T00:29:31.872Z,19.52
2018-10-07T00:32:07.328Z,20.75
2018-10-07T00:34:37.442Z,19.87
2018-10-07T00:37:07.248Z,19.60
2018-10-07T00:39:37.539Z,19.70
2018-10-07T00:42:07.588Z,20.37
2018-10-07T00:44:37.521Z,19.60
2018-10-07T00:47:08.672Z,18.87
2018-10-07T00:49:39.518Z,19.70
2018-10-07T00:52:10.470Z,21.02
2018-10-07T00:54:40.261Z,20.60
2018-10-07T00:57:11.684Z,21.38
2018-10-07T00:59:42.496Z,21.15
2018-10-07T01:02:13.490Z,20.80
2018-10-07T01:04:44.493Z,21.27
2018-10-07T01:07:15.773Z,21.06
2018-10-07T01:09:46.764Z,20.60
2018-10-07T01:12:17.680Z,20.30
2018-10-07T01:14:48.466Z,20.70
2018-10-07T01:17:19.712Z,20.76
2018-10-07T01:19:50.492Z,21.00
2018-10-07T01:22:21.960Z,22.92
2018-10-07T01:24:52.618Z,20.65
2018-10-07T01:27:23.514Z,19.85
2018-10-07T01:29:54.435Z,20.72
2018-10-07T01:32:25.460Z,20.55
2018-10-07T01:34:56.345Z,21.12
2018-10-07T01:37:27.752Z,21.56
2018-10-07T01:39:58.558Z,22.17
2018-10-07T01:42:29.416Z,21.95
2018-10-07T01:45:00.639Z,21.38
2018-10-07T01:47:31.518Z,21.23
2018-10-07T01:50:02.304Z,21.27
2018-10-07T01:52:33.791Z,19.76
2018-10-07T01:55:05.713Z,21.48
2018-10-07T01:57:35.657Z,20.53
2018-10-07T02:00:06.509Z,20.97
2018-10-07T02:02:37.661Z,22.13
2018-10-07T02:05:08.884Z,22.35
2018-10-07T02:07:39.661Z,20.82
2018-10-07T02:10:10.449Z,20.77
2018-10-07T02:12:41.580Z,19.95
2018-10-07T02:15:12.606Z,20.43
2018-10-07T02:17:43.460Z,21.97
2018-10-07T02:20:14.733Z,23.46
2018-10-07T02:22:46.009Z,25.50
2018-10-07T02:25:16.670Z,23.85
2018-10-07T02:27:47.726Z,21.85
2018-10-07T02:30:18.973Z,20.05
2018-10-07T02:32:49.750Z,19.82
2018-10-07T02:35:23.803Z,20.35
2018-10-07T02:37:54.073Z,21.03
2018-10-07T02:40:24.314Z,21.43
2018-10-07T02:42:54.313Z,21.73
2018-10-07T02:45:24.325Z,21.00
2018-10-07T02:47:55.917Z,22.24
2018-10-07T02:50:27.177Z,20.90
2018-10-07T02:52:58.409Z,19.82
2018-10-07T02:55:31.260Z,21.07
2018-10-07T02:58:04.240Z,21.47
2018-10-07T03:00:34.206Z,20.57
2018-10-07T03:03:04.299Z,20.85
2018-10-07T03:05:34.337Z,21.27
2018-10-07T03:08:04.352Z,21.07
2018-10-07T03:10:34.634Z,21.60
2018-10-07T03:13:05.572Z,21.97
2018-10-07T03:15:36.489Z,22.40
2018-10-07T03:18:07.523Z,21.87
2018-10-07T03:20:38.525Z,21.97
2018-10-07T03:23:09.297Z,22.00
2018-10-07T03:25:40.769Z,21.80
2018-10-07T03:28:11.550Z,21.05
2018-10-07T03:30:42.558Z,21.10
2018-10-07T03:33:13.317Z,21.12
2018-10-07T03:35:44.699Z,21.22
2018-10-07T03:38:15.460Z,21.95
2018-10-07T03:40:46.848Z,21.68
2018-10-07T03:43:17.637Z,21.07
2018-10-07T03:45:48.509Z,21.97
2018-10-07T03:48:19.388Z,20.77
2018-10-07T03:50:50.740Z,21.26
2018-10-07T03:53:21.512Z,21.02
2018-10-07T03:55:52.513Z,21.95
2018-10-07T03:58:23.349Z,21.70
2018-10-07T04:00:55.005Z,21.76
2018-10-07T04:03:25.619Z,21.82
2018-10-07T04:05:56.818Z,22.20
2018-10-07T04:08:27.657Z,21.25
2018-10-07T04:10:58.609Z,20.72
2018-10-07T04:13:29.344Z,20.75
2018-10-07T04:16:00.722Z,20.58
2018-10-07T04:18:31.508Z,19.62
2018-10-07T04:21:02.446Z,20.05
2018-10-07T04:23:33.723Z,20.04
2018-10-07T04:26:04.750Z,20.43
2018-10-07T04:28:35.537Z,20.55
2018-10-07T04:31:06.454Z,19.55
2018-10-07T04:33:37.759Z,19.66
2018-10-07T04:36:08.693Z,20.50
2018-10-07T04:38:39.929Z,19.60
2018-10-07T04:41:10.892Z,19.86
2018-10-07T04:43:41.541Z,20.48
2018-10-07T04:46:12.990Z,21.10
2018-10-07T04:48:43.544Z,20.62
2018-10-07T04:51:14.465Z,20.08
2018-10-07T04:53:45.297Z,19.32
2018-10-07T04:56:16.870Z,19.88
2018-10-07T04:58:47.582Z,21.45
2018-10-07T05:01:18.740Z,19.65
2018-10-07T05:03:49.860Z,22.30
2018-10-07T05:06:21.548Z,21.45
2018-10-07T05:08:51.606Z,20.80
2018-10-07T05:11:22.807Z,21.33
2018-10-07T05:13:55.535Z,20.05
2018-10-07T05:16:46.934Z,20.40
2018-10-07T05:19:17.345Z,20.23
2018-10-07T05:21:47.637Z,19.85
2018-10-07T05:29:09.619Z,31.33
2018-10-07T05:31:39.471Z,26.90
2018-10-07T05:34:09.341Z,25.07
2018-10-07T05:36:39.267Z,24.90
2018-10-07T05:39:10.770Z,24.47
2018-10-07T05:41:40.690Z,26.07
2018-10-07T05:44:10.562Z,23.77
2018-10-07T05:46:40.507Z,22.70
2018-10-07T05:49:10.348Z,22.25
2018-10-07T05:51:40.197Z,24.90
2018-10-07T05:54:10.581Z,24.20
2018-10-07T05:56:40.395Z,22.77
2018-10-07T05:59:10.999Z,21.87
2018-10-07T06:01:43.274Z,21.55
2018-10-07T06:04:29.852Z,21.80
2018-10-07T06:07:02.944Z,22.95
2018-10-07T06:09:35.939Z,23.27
2018-10-07T06:12:06.026Z,23.23
2018-10-07T06:14:46.490Z,23.10
2018-10-07T06:17:16.768Z,23.20
2018-10-07T06:19:46.862Z,23.80
2018-10-07T06:22:16.790Z,23.63
2018-10-07T06:24:46.786Z,23.50
2018-10-07T06:27:16.663Z,23.33
2018-10-07T06:29:46.742Z,23.87
2018-10-07T06:32:16.908Z,24.23
2018-10-07T06:34:46.781Z,25.43
2018-10-07T06:37:16.731Z,23.27
2018-10-07T06:39:46.759Z,26.40
2018-10-07T06:42:16.632Z,26.97
2018-10-07T06:44:47.870Z,26.70
2018-10-07T06:47:17.732Z,25.87
2018-10-07T06:49:47.814Z,25.30
2018-10-07T06:52:18.105Z,25.27
2018-10-07T06:54:48.435Z,23.95
2018-10-07T06:57:18.925Z,22.17
2018-10-07T06:59:48.855Z,22.53
2018-10-07T07:02:19.597Z,23.27
2018-10-07T07:04:49.742Z,22.15
2018-10-07T07:07:19.714Z,21.80
2018-10-07T07:09:49.673Z,21.40
2018-10-07T07:12:19.485Z,21.57
2018-10-07T07:14:49.419Z,22.50
2018-10-07T07:17:19.596Z,22.33
2018-10-07T07:19:49.513Z,23.37
2018-10-07T07:22:19.608Z,22.90
2018-10-07T07:24:49.442Z,22.57
2018-10-07T07:27:19.445Z,22.50
2018-10-07T07:29:49.290Z,22.63
2018-10-07T07:32:19.102Z,22.45
2018-10-07T07:34:49.540Z,22.90
2018-10-07T07:37:19.361Z,21.10
2018-10-07T07:39:49.906Z,20.82
2018-10-07T07:42:20.774Z,20.10
2018-10-07T07:44:51.690Z,19.05
2018-10-07T07:47:25.012Z,19.32
2018-10-07T07:49:55.889Z,19.90
2018-10-07T07:52:25.741Z,19.20
2018-10-07T07:54:56.375Z,19.80
2018-10-07T07:57:26.698Z,18.60
2018-10-07T07:59:57.592Z,17.90
2018-10-07T08:02:28.885Z,17.12
2018-10-07T08:05:01.537Z,17.05
2018-10-07T08:07:33.049Z,17.05
2018-10-07T08:10:03.603Z,16.33
2018-10-07T08:12:33.476Z,15.33
2018-10-07T08:15:03.521Z,15.40
2018-10-07T08:17:34.871Z,15.68
2018-10-07T08:20:05.795Z,15.25
2018-10-07T08:22:37.192Z,14.33
2018-10-07T08:25:07.829Z,14.52
2018-10-07T08:27:38.858Z,14.40
2018-10-07T08:30:10.004Z,14.95
2018-10-07T08:32:40.968Z,15.28
2018-10-07T08:35:11.866Z,15.08
2018-10-07T08:37:42.870Z,14.85
2018-10-07T08:40:13.764Z,14.90
2018-10-07T08:42:44.759Z,13.40
2018-10-07T08:45:15.906Z,12.47
2018-10-07T08:47:46.957Z,11.68
2018-10-07T08:50:17.719Z,10.30
2018-10-07T08:52:48.674Z,10.15
2018-10-07T08:55:19.472Z,10.00
2018-10-07T08:57:50.489Z,9.78
2018-10-07T09:00:21.381Z,10.32
2018-10-07T09:02:52.397Z,9.65
2018-10-07T09:05:23.770Z,10.34
2018-10-07T09:07:54.871Z,9.25
2018-10-07T09:10:25.702Z,9.45
2018-10-07T09:12:56.857Z,9.28
2018-10-07T09:15:27.815Z,9.40
2018-10-07T09:17:58.832Z,9.00
2018-10-07T09:20:29.542Z,9.33
2018-10-07T09:23:00.757Z,9.60
2018-10-07T09:25:31.529Z,9.63
2018-10-07T09:28:02.805Z,9.03
2018-10-07T09:30:34.078Z,9.73
2018-10-07T09:33:04.729Z,9.88
2018-10-07T09:35:35.554Z,9.25
2018-10-07T09:38:07.164Z,10.30
2018-10-07T09:40:37.711Z,9.82
2018-10-07T09:43:08.730Z,8.90
2018-10-07T09:45:39.534Z,8.33
2018-10-07T09:48:10.788Z,8.25
2018-10-07T09:50:41.573Z,7.65
2018-10-07T09:53:12.683Z,8.33
2018-10-07T09:55:43.577Z,7.62
2018-10-07T09:58:14.553Z,6.83
2018-10-07T10:00:45.365Z,6.97
2018-10-07T10:03:16.830Z,7.06
2018-10-07T10:05:47.666Z,7.22
2018-10-07T10:08:18.850Z,7.22
2018-10-07T10:10:49.783Z,6.75
2018-10-07T10:13:20.691Z,6.67
2018-10-07T10:15:51.547Z,6.50
2018-10-07T10:18:27.810Z,6.10
2018-10-07T10:21:02.332Z,5.62
2018-10-07T10:24:47.716Z,6.20
2018-10-07T10:28:53.853Z,5.90
2018-10-07T10:31:36.709Z,6.90
2018-10-07T10:35:13.309Z,6.43
2018-10-07T10:38:48.888Z,5.93
2018-10-07T10:41:24.863Z,6.25
2018-10-07T10:44:00.662Z,6.43
2018-10-07T10:46:39.013Z,6.17
2018-10-07T10:49:16.360Z,6.20
2018-10-07T10:51:53.008Z,5.97
2018-10-07T10:54:30.203Z,5.50
2018-10-07T10:57:09.037Z,6.00
2018-10-07T11:00:15.912Z,6.77
2018-10-07T11:04:58.696Z,6.77
2018-10-07T11:07:37.221Z,6.73
2018-10-07T11:10:23.065Z,7.10
2018-10-07T11:14:10.342Z,7.17
2018-10-07T11:16:56.052Z,7.40
2018-10-07T11:19:30.024Z,7.30
2018-10-07T11:22:11.253Z,6.60
2018-10-07T11:24:46.531Z,6.87
2018-10-07T11:27:41.232Z,6.70
2018-10-07T11:31:22.660Z,6.67
2018-10-07T11:34:00.751Z,6.13
2018-10-07T11:36:45.819Z,6.67
2018-10-07T11:39:26.562Z,5.50
2018-10-07T11:42:04.543Z,6.60
2018-10-07T11:44:53.409Z,6.53
2018-10-07T11:47:32.071Z,6.20
2018-10-07T11:50:07.008Z,5.50
2018-10-07T11:52:43.569Z,5.80
2018-10-07T11:55:12.872Z,6.07
2018-10-07T11:57:43.275Z,5.77
2018-10-07T12:00:13.443Z,5.63
2018-10-07T12:02:43.692Z,5.78
2018-10-07T12:05:13.802Z,5.80
2018-10-07T12:07:43.893Z,6.30
2018-10-07T12:10:14.077Z,5.50
2018-10-07T12:12:43.998Z,6.27
2018-10-07T12:15:14.258Z,6.30
2018-10-07T12:17:44.217Z,6.37
2018-10-07T12:20:14.001Z,6.47
2018-10-07T12:22:43.790Z,6.80
2018-10-07T12:25:13.747Z,5.97
2018-10-07T12:27:43.710Z,6.37
2018-10-07T12:30:13.862Z,5.60
2018-10-07T12:32:43.685Z,6.17
2018-10-07T12:35:13.836Z,6.00
2018-10-07T12:37:48.744Z,6.20
2018-10-07T12:40:18.937Z,6.33
2018-10-07T12:42:48.773Z,5.53
2018-10-07T12:45:18.758Z,5.93
2018-10-07T12:47:48.637Z,6.20
2018-10-07T12:50:18.640Z,6.03
2018-10-07T12:52:49.256Z,5.83
2018-10-07T12:55:19.061Z,5.27
2018-10-07T12:57:48.864Z,5.23
2018-10-07T13:00:18.737Z,5.53
2018-10-07T13:02:48.642Z,5.70
2018-10-07T13:05:18.765Z,5.30
2018-10-07T13:07:49.036Z,5.40
2018-10-07T13:10:18.997Z,5.30
2018-10-07T13:12:48.917Z,6.20
2018-10-07T13:15:18.718Z,6.23
2018-10-07T13:17:48.799Z,5.63
2018-10-07T13:20:18.623Z,5.67
2018-10-07T13:22:48.724Z,5.43
2018-10-07T13:25:18.685Z,5.37
2018-10-07T13:27:48.825Z,4.70
2018-10-07T13:30:18.843Z,5.07
2018-10-07T13:32:48.667Z,4.37
2018-10-07T13:35:18.837Z,4.13
2018-10-07T13:37:48.777Z,3.80
2018-10-07T13:40:19.212Z,4.00
2018-10-07T13:42:49.152Z,4.10
2018-10-07T13:45:19.045Z,4.03
2018-10-07T13:47:48.928Z,4.07
2018-10-07T13:50:18.846Z,4.70
2018-10-07T13:52:48.730Z,4.20
2018-10-07T13:55:19.465Z,4.10
2018-10-07T13:57:49.894Z,4.55
2018-10-07T14:00:19.806Z,4.60
2018-10-07T14:02:49.888Z,5.03
2018-10-07T14:05:19.912Z,4.67
2018-10-07T14:07:50.013Z,5.10
2018-10-07T14:10:19.899Z,4.80
2018-10-07T14:12:49.901Z,5.13
2018-10-07T14:15:19.921Z,5.10
2018-10-07T14:17:49.826Z,5.70
2018-10-07T14:20:19.869Z,5.40
2018-10-07T14:22:49.913Z,4.97
2018-10-07T14:25:19.797Z,4.37
2018-10-07T14:27:49.928Z,4.57
2018-10-07T14:30:25.438Z,4.77
2018-10-07T14:32:55.549Z,5.00
2018-10-07T14:35:25.580Z,4.60
2018-10-07T14:37:55.645Z,4.87
2018-10-07T14:40:25.615Z,4.50
2018-10-07T14:42:55.590Z,5.07
2018-10-07T14:45:25.758Z,5.53
2018-10-07T14:47:56.068Z,5.83
2018-10-07T14:50:26.509Z,6.35
2018-10-07T14:52:58.161Z,7.35
2018-10-07T14:55:28.030Z,7.27
2018-10-07T14:57:58.509Z,8.85
2018-10-07T15:00:28.489Z,8.83
2018-10-07T15:02:58.530Z,9.30
2018-10-07T15:05:28.452Z,9.00
2018-10-07T15:07:58.317Z,9.60
2018-10-07T15:10:28.263Z,10.23
2018-10-07T15:12:58.209Z,10.13
2018-10-07T15:15:28.011Z,9.80
2018-10-07T15:17:57.756Z,9.90
2018-10-07T15:20:27.730Z,9.37
2018-10-07T15:22:57.506Z,10.00
2018-10-07T15:25:27.340Z,10.30
2018-10-07T15:27:57.545Z,9.60
2018-10-07T15:30:27.322Z,9.63
2018-10-07T15:32:57.790Z,10.08
2018-10-07T15:35:28.572Z,11.68
2018-10-07T15:37:59.698Z,10.68
2018-10-07T15:40:30.524Z,11.05
2018-10-07T15:43:01.517Z,10.48
2018-10-07T15:45:32.326Z,10.98
2018-10-07T15:48:03.933Z,10.72
2018-10-07T15:50:34.752Z,10.38
2018-10-07T15:53:05.786Z,10.72
2018-10-07T15:55:36.744Z,9.20
2018-10-07T15:58:07.860Z,9.23
2018-10-07T16:00:38.765Z,8.13
2018-10-07T16:03:09.986Z,7.87
2018-10-07T16:05:40.646Z,6.62
2018-10-07T16:08:11.534Z,6.53
2018-10-07T16:10:42.497Z,5.72
2018-10-07T16:13:13.597Z,5.95
2018-10-07T16:15:44.456Z,5.53
2018-10-07T16:18:15.884Z,5.68
2018-10-07T16:20:46.855Z,5.17
2018-10-07T16:23:18.115Z,5.45
2018-10-07T16:25:48.545Z,4.67
2018-10-07T16:28:19.599Z,4.70
2018-10-07T16:30:50.596Z,4.10
2018-10-07T16:33:21.811Z,3.80
2018-10-07T16:35:53.431Z,4.25
2018-10-07T16:38:23.399Z,4.10
2018-10-07T16:40:54.954Z,3.82
2018-10-07T16:43:26.554Z,4.08
2018-10-07T16:45:57.133Z,4.75
2018-10-07T16:48:29.583Z,3.62
2018-10-07T16:50:59.409Z,3.93
2018-10-07T16:53:32.804Z,3.37
2018-10-07T16:56:05.505Z,3.90
2018-10-07T16:58:37.750Z,4.60
2018-10-07T17:01:10.560Z,4.70
2018-10-07T17:03:40.837Z,4.40
2018-10-07T17:06:20.836Z,5.30
2018-10-07T17:08:51.915Z,5.17
2018-10-07T17:11:21.894Z,5.60
2018-10-07T17:13:53.081Z,5.90
2018-10-07T17:16:27.190Z,6.12
2018-10-07T17:21:32.213Z,6.00
2018-10-07T17:24:04.035Z,4.93
2018-10-07T17:26:33.900Z,5.33
2018-10-07T17:29:04.045Z,4.57
2018-10-07T17:31:35.363Z,4.70
2018-10-07T17:34:06.536Z,4.83
2018-10-07T17:36:38.604Z,4.40
2018-10-07T17:39:13.939Z,4.10
2018-10-07T17:41:43.861Z,4.07
2018-10-07T17:44:19.083Z,4.30
2018-10-07T17:46:48.912Z,4.97
2018-10-07T17:49:25.155Z,3.47
2018-10-07T17:51:57.113Z,4.13
2018-10-07T17:54:28.304Z,5.07
2018-10-07T17:56:59.709Z,4.60
2018-10-07T17:59:30.542Z,3.80
2018-10-07T18:02:01.461Z,3.90
2018-10-07T18:04:34.518Z,4.00
2018-10-07T18:07:06.413Z,3.80
2018-10-07T18:09:38.475Z,3.95
2018-10-07T18:12:09.492Z,3.80
2018-10-07T18:14:45.210Z,3.10
2018-10-07T18:17:15.386Z,3.33
2018-10-07T18:19:51.033Z,3.13
2018-10-07T18:22:21.111Z,3.30
2018-10-07T18:24:51.793Z,4.20
2018-10-07T18:27:25.120Z,4.50
2018-10-07T18:35:05.763Z,4.00
2018-10-07T18:37:38.515Z,4.30
2018-10-07T18:42:44.035Z,2.97
2018-10-07T18:49:51.065Z,3.08
2018-10-07T18:52:21.068Z,2.90
2018-10-07T18:54:50.914Z,2.90
2018-10-07T18:57:26.001Z,2.80
2018-10-07T18:59:55.891Z,3.37
2018-10-07T19:02:28.129Z,3.27
2018-10-07T19:05:00.261Z,2.60
2018-10-07T19:07:30.167Z,2.30
2018-10-07T19:09:59.985Z,2.20
2018-10-07T19:12:29.987Z,2.50
2018-10-07T19:14:59.905Z,2.50
2018-10-07T19:17:30.232Z,2.00
2018-10-07T19:20:02.205Z,2.50
2018-10-07T19:22:32.446Z,2.20
2018-10-07T19:25:03.684Z,2.27
2018-10-07T19:27:33.620Z,2.43
2018-10-07T19:30:05.414Z,2.73
2018-10-07T19:32:36.053Z,2.40
2018-10-07T19:35:05.976Z,2.70
2018-10-07T19:37:35.781Z,2.53
2018-10-07T19:40:05.654Z,2.77
2018-10-07T19:42:35.656Z,2.83
2018-10-07T19:45:06.011Z,2.67
2018-10-07T19:47:35.851Z,2.93
2018-10-07T19:50:05.838Z,2.67
2018-10-07T19:52:35.631Z,2.13
2018-10-07T19:55:05.522Z,2.30
2018-10-07T19:57:35.500Z,2.20
2018-10-07T20:00:05.720Z,2.10
2018-10-07T20:02:35.548Z,2.33
2018-10-07T20:05:05.572Z,2.00
2018-10-07T20:07:35.601Z,2.20
2018-10-07T20:10:05.813Z,2.30
2018-10-07T20:12:36.013Z,2.30
2018-10-07T20:15:06.074Z,2.23
2018-10-07T20:17:35.993Z,2.10
2018-10-07T20:20:06.324Z,2.30
2018-10-07T20:22:36.573Z,2.00
2018-10-07T20:25:06.591Z,2.30
2018-10-07T20:27:36.503Z,1.97
2018-10-07T20:30:06.684Z,2.10
2018-10-07T20:32:36.750Z,2.70
2018-10-07T20:35:06.748Z,2.53
2018-10-07T20:37:36.644Z,2.20
2018-10-07T20:40:06.830Z,2.60
2018-10-07T20:42:36.985Z,2.50
2018-10-07T20:45:06.872Z,2.67
2018-10-07T20:47:36.692Z,2.20
2018-10-07T20:51:09.709Z,2.83
2018-10-07T20:53:39.654Z,2.40
2018-10-07T20:56:09.758Z,2.50
2018-10-07T20:58:39.618Z,3.07
2018-10-07T21:01:09.634Z,2.73
2018-10-07T21:03:39.536Z,2.60
2018-10-07T21:06:09.659Z,2.60
2018-10-07T21:08:39.758Z,2.80
2018-10-07T21:11:09.577Z,2.20
2018-10-07T21:13:39.945Z,3.00
2018-10-07T21:16:09.820Z,2.70
2018-10-07T21:18:39.712Z,2.13
2018-10-07T21:21:09.590Z,2.60
2018-10-07T21:23:39.680Z,2.60
2018-10-07T21:26:10.189Z,2.63
2018-10-07T21:28:40.022Z,2.60
2018-10-07T21:31:10.109Z,2.53
2018-10-07T21:33:39.931Z,2.23
2018-10-07T21:36:09.779Z,2.77
2018-10-07T21:38:39.608Z,2.77
2018-10-07T21:41:09.600Z,2.60
2018-10-07T21:43:39.966Z,2.80
2018-10-07T21:46:09.766Z,2.70
2018-10-07T21:48:39.576Z,2.83
2018-10-07T21:51:10.296Z,2.70
2018-10-07T21:53:40.260Z,2.87
2018-10-07T21:56:10.423Z,4.30
2018-10-07T21:58:40.634Z,3.20
2018-10-07T22:01:10.560Z,3.53
2018-10-07T22:03:40.633Z,5.27
2018-10-07T22:06:10.514Z,4.87
2018-10-07T22:08:40.646Z,4.20
2018-10-07T22:11:10.705Z,4.03
2018-10-07T22:13:40.598Z,5.23
2018-10-07T22:16:10.720Z,3.80
2018-10-07T22:18:40.478Z,2.80
2018-10-07T22:21:10.784Z,2.87
2018-10-07T22:23:40.650Z,3.17
2018-10-07T22:26:10.781Z,3.67
2018-10-07T22:28:40.821Z,6.70
2018-10-07T22:31:10.668Z,6.50
2018-10-07T22:33:40.730Z,4.33
2018-10-07T22:36:10.605Z,3.87
2018-10-07T22:38:40.645Z,4.35
2018-10-07T22:41:10.762Z,4.40
2018-10-07T22:43:40.828Z,4.20
2018-10-07T22:46:10.794Z,5.33
2018-10-07T22:48:40.689Z,3.20
2018-10-07T22:51:10.539Z,3.40
2018-10-07T22:53:40.557Z,2.63
2018-10-07T22:56:10.594Z,3.00
2018-10-07T22:58:41.689Z,2.90
2018-10-07T23:01:11.542Z,3.10
2018-10-07T23:03:41.566Z,3.33
2018-10-07T23:06:11.577Z,3.27
2018-10-07T23:08:41.638Z,2.90
2018-10-07T23:11:11.649Z,2.80
2018-10-07T23:13:42.080Z,3.10
2018-10-07T23:16:11.936Z,3.20
2018-10-07T23:18:41.853Z,3.37
2018-10-07T23:21:11.633Z,3.60
2018-10-07T23:23:50.789Z,3.63
2018-10-07T23:26:20.716Z,3.70
2018-10-07T23:28:50.649Z,3.70
2018-10-07T23:31:20.616Z,3.57
2018-10-07T23:33:50.518Z,3.43
2018-10-07T23:36:20.637Z,3.33
2018-10-07T23:38:50.458Z,3.20
2018-10-07T23:41:20.910Z,3.10
2018-10-07T23:43:50.783Z,3.60
2018-10-07T23:46:20.537Z,3.63
2018-10-07T23:48:50.766Z,3.57
2018-10-07T23:51:20.611Z,3.53
2018-10-07T23:53:50.670Z,3.83
2018-10-07T23:56:20.666Z,3.83
2018-10-07T23:58:50.813Z,3.43
